sensor_id;sensor_type;location;lat;lon;timestamp;pressure;altitude;pressure_sealevel;temperature;humidity
61786;BME280;47692;53.714;11.372;2023-11-19T00:00:09;100813.56;;;3.19;100.00
61786;BME280;47692;53.714;11.372;2023-11-19T00:02:36;100807.56;;;3.19;100.00
61786;BME280;47692;53.714;11.372;2023-11-19T00:05:02;100802.41;;;3.17;100.00
61786;BME280;47692;53.714;11.372;2023-11-19T00:07:27;100808.41;;;3.19;100.00
61786;BME280;47692;53.714;11.372;2023-11-19T00:09:52;100796.41;;;3.18;100.00
61786;BME280;47692;53.714;11.372;2023-11-19T00:12:17;100782.63;;;3.19;100.00
61786;BME280;47692;53.714;11.372;2023-11-19T00:14:43;100766.28;;;3.16;100.00
61786;BME280;47692;53.714;11.372;2023-11-19T00:17:09;100763.66;;;3.14;100.00
61786;BME280;47692;53.714;11.372;2023-11-19T00:19:34;100753.34;;;3.14;100.00
61786;BME280;47692;53.714;11.372;2023-11-19T00:22:00;100743.06;;;3.16;100.00
61786;BME280;47692;53.714;11.372;2023-11-19T00:24:28;100742.19;;;3.17;100.00
61786;BME280;47692;53.714;11.372;2023-11-19T00:26:53;100739.59;;;3.15;100.00
61786;BME280;47692;53.714;11.372;2023-11-19T00:29:18;100729.25;;;3.12;100.00
61786;BME280;47692;53.714;11.372;2023-11-19T00:31:45;100725.00;;;3.16;100.00
61786;BME280;47692;53.714;11.372;2023-11-19T00:34:10;100706.03;;;3.15;100.00
61786;BME280;47692;53.714;11.372;2023-11-19T00:36:36;100703.47;;;3.12;100.00
61786;BME280;47692;53.714;11.372;2023-11-19T00:39:01;100700.00;;;3.13;100.00
61786;BME280;47692;53.714;11.372;2023-11-19T00:41:26;100681.97;;;3.15;100.00
61786;BME280;47692;53.714;11.372;2023-11-19T00:43:52;100686.25;;;3.14;100.00
61786;BME280;47692;53.714;11.372;2023-11-19T00:46:17;100672.50;;;3.15;100.00
61786;BME280;47692;53.714;11.372;2023-11-19T00:48:42;100666.50;;;3.15;100.00
61786;BME280;47692;53.714;11.372;2023-11-19T00:51:08;100663.06;;;3.16;100.00
61786;BME280;47692;53.714;11.372;2023-11-19T00:53:33;100659.63;;;3.17;100.00
61786;BME280;47692;53.714;11.372;2023-11-19T00:55:59;100650.19;;;3.19;100.00
61786;BME280;47692;53.714;11.372;2023-11-19T00:58:25;100650.19;;;3.20;100.00
61786;BME280;47692;53.714;11.372;2023-11-19T01:00:50;100638.16;;;3.22;100.00
61786;BME280;47692;53.714;11.372;2023-11-19T01:03:15;100633.00;;;3.22;100.00
61786;BME280;47692;53.714;11.372;2023-11-19T01:05:41;100641.63;;;3.25;100.00
61786;BME280;47692;53.714;11.372;2023-11-19T01:08:07;100627.00;;;3.23;100.00
61786;BME280;47692;53.714;11.372;2023-11-19T01:10:33;100621.84;;;3.25;100.00
61786;BME280;47692;53.714;11.372;2023-11-19T01:12:59;100620.97;;;3.25;100.00
61786;BME280;47692;53.714;11.372;2023-11-19T01:15:24;100622.69;;;3.26;100.00
61786;BME280;47692;53.714;11.372;2023-11-19T01:17:50;100612.34;;;3.26;100.00
61786;BME280;47692;53.714;11.372;2023-11-19T01:20:15;100612.41;;;3.29;100.00
61786;BME280;47692;53.714;11.372;2023-11-19T01:22:40;100598.59;;;3.27;100.00
61786;BME280;47692;53.714;11.372;2023-11-19T01:25:06;100590.88;;;3.28;100.00
61786;BME280;47692;53.714;11.372;2023-11-19T01:27:33;100583.13;;;3.27;100.00
61786;BME280;47692;53.714;11.372;2023-11-19T01:30:02;100571.09;;;3.29;100.00
61786;BME280;47692;53.714;11.372;2023-11-19T01:32:29;100551.31;;;3.29;100.00
61786;BME280;47692;53.714;11.372;2023-11-19T01:34:54;100552.19;;;3.30;100.00
61786;BME280;47692;53.714;11.372;2023-11-19T01:37:20;100553.03;;;3.27;100.00
61786;BME280;47692;53.714;11.372;2023-11-19T01:39:45;100543.56;;;3.28;100.00
61786;BME280;47692;53.714;11.372;2023-11-19T01:42:10;100537.56;;;3.27;100.00
61786;BME280;47692;53.714;11.372;2023-11-19T01:44:37;100540.13;;;3.29;100.00
61786;BME280;47692;53.714;11.372;2023-11-19T01:47:03;100526.38;;;3.30;100.00
61786;BME280;47692;53.714;11.372;2023-11-19T01:49:30;100536.72;;;3.30;100.00
61786;BME280;47692;53.714;11.372;2023-11-19T01:51:57;100533.28;;;3.34;100.00
61786;BME280;47692;53.714;11.372;2023-11-19T01:54:23;100522.06;;;3.30;100.00
61786;BME280;47692;53.714;11.372;2023-11-19T01:56:48;100516.06;;;3.33;100.00
61786;BME280;47692;53.714;11.372;2023-11-19T01:59:14;100508.31;;;3.33;100.00
61786;BME280;47692;53.714;11.372;2023-11-19T02:01:40;100501.44;;;3.32;100.00
61786;BME280;47692;53.714;11.372;2023-11-19T02:04:07;100499.72;;;3.32;100.00
61786;BME280;47692;53.714;11.372;2023-11-19T02:06:34;100481.66;;;3.34;100.00
61786;BME280;47692;53.714;11.372;2023-11-19T02:09:00;100466.19;;;3.34;100.00
61786;BME280;47692;53.714;11.372;2023-11-19T02:11:26;100466.19;;;3.34;100.00
61786;BME280;47692;53.714;11.372;2023-11-19T02:13:55;100449.84;;;3.36;100.00
61786;BME280;47692;53.714;11.372;2023-11-19T02:16:20;100444.69;;;3.36;100.00
61786;BME280;47692;53.714;11.372;2023-11-19T02:18:46;100442.97;;;3.38;100.00
61786;BME280;47692;53.714;11.372;2023-11-19T02:21:11;100426.59;;;3.38;100.00
61786;BME280;47692;53.714;11.372;2023-11-19T02:23:36;100423.19;;;3.39;100.00
61786;BME280;47692;53.714;11.372;2023-11-19T02:28:45;100412.00;;;3.37;100.00
61786;BME280;47692;53.714;11.372;2023-11-19T02:31:11;100430.06;;;3.37;100.00
61786;BME280;47692;53.714;11.372;2023-11-19T02:33:37;100406.84;;;3.37;100.00
61786;BME280;47692;53.714;11.372;2023-11-19T02:36:04;100400.81;;;3.38;100.00
61786;BME280;47692;53.714;11.372;2023-11-19T02:38:30;100402.53;;;3.36;100.00
61786;BME280;47692;53.714;11.372;2023-11-19T02:40:56;100399.09;;;3.37;100.00
61786;BME280;47692;53.714;11.372;2023-11-19T02:43:22;100393.94;;;3.40;100.00
61786;BME280;47692;53.714;11.372;2023-11-19T02:45:48;100390.47;;;3.38;100.00
61786;BME280;47692;53.714;11.372;2023-11-19T02:48:13;100374.16;;;3.36;100.00
61786;BME280;47692;53.714;11.372;2023-11-19T02:50:41;100375.88;;;3.37;100.00
61786;BME280;47692;53.714;11.372;2023-11-19T02:53:06;100366.41;;;3.36;100.00
61786;BME280;47692;53.714;11.372;2023-11-19T02:55:32;100366.41;;;3.36;100.00
61786;BME280;47692;53.714;11.372;2023-11-19T02:58:03;100356.09;;;3.36;100.00
61786;BME280;47692;53.714;11.372;2023-11-19T03:00:34;100343.19;;;3.36;100.00
61786;BME280;47692;53.714;11.372;2023-11-19T03:03:02;100329.41;;;3.34;100.00
61786;BME280;47692;53.714;11.372;2023-11-19T03:05:42;100323.38;;;3.38;100.00
61786;BME280;47692;53.714;11.372;2023-11-19T03:08:09;100295.88;;;3.37;100.00
61786;BME280;47692;53.714;11.372;2023-11-19T03:10:35;100301.91;;;3.36;100.00
61786;BME280;47692;53.714;11.372;2023-11-19T03:13:00;100301.03;;;3.37;100.00
61786;BME280;47692;53.714;11.372;2023-11-19T03:15:27;100273.50;;;3.36;100.00
61786;BME280;47692;53.714;11.372;2023-11-19T03:17:52;100260.59;;;3.34;100.00
61786;BME280;47692;53.714;11.372;2023-11-19T03:20:19;100244.25;;;3.34;100.00
61786;BME280;47692;53.714;11.372;2023-11-19T03:22:46;100251.13;;;3.35;100.00
61786;BME280;47692;53.714;11.372;2023-11-19T03:25:11;100249.44;;;3.37;100.00
61786;BME280;47692;53.714;11.372;2023-11-19T03:27:37;100253.69;;;3.38;100.00
61786;BME280;47692;53.714;11.372;2023-11-19T03:30:07;100245.97;;;3.38;100.00
61786;BME280;47692;53.714;11.372;2023-11-19T03:32:34;100239.94;;;3.37;100.00
61786;BME280;47692;53.714;11.372;2023-11-19T03:35:00;100225.31;;;3.41;100.00
61786;BME280;47692;53.714;11.372;2023-11-19T03:37:26;100232.22;;;3.36;100.00
61786;BME280;47692;53.714;11.372;2023-11-19T03:39:54;100228.75;;;3.40;100.00
61786;BME280;47692;53.714;11.372;2023-11-19T03:42:19;100213.28;;;3.40;100.00
61786;BME280;47692;53.714;11.372;2023-11-19T03:44:46;100209.84;;;3.41;100.00
61786;BME280;47692;53.714;11.372;2023-11-19T03:47:11;100204.69;;;3.41;100.00
61786;BME280;47692;53.714;11.372;2023-11-19T03:49:36;100206.41;;;3.39;100.00
61786;BME280;47692;53.714;11.372;2023-11-19T03:52:02;100199.53;;;3.41;100.00
61786;BME280;47692;53.714;11.372;2023-11-19T03:54:27;100190.91;;;3.42;100.00
61786;BME280;47692;53.714;11.372;2023-11-19T03:56:53;100179.75;;;3.43;100.00
61786;BME280;47692;53.714;11.372;2023-11-19T03:59:18;100178.88;;;3.41;100.00
61786;BME280;47692;53.714;11.372;2023-11-19T04:01:45;100179.72;;;3.40;100.00
61786;BME280;47692;53.714;11.372;2023-11-19T04:04:11;100177.16;;;3.40;100.00
61786;BME280;47692;53.714;11.372;2023-11-19T04:06:36;100185.75;;;3.42;100.00
61786;BME280;47692;53.714;11.372;2023-11-19T04:09:01;100171.13;;;3.41;100.00
61786;BME280;47692;53.714;11.372;2023-11-19T04:11:27;100172.00;;;3.43;100.00
61786;BME280;47692;53.714;11.372;2023-11-19T04:13:52;100169.41;;;3.43;100.00
61786;BME280;47692;53.714;11.372;2023-11-19T04:16:18;100168.53;;;3.47;100.00
61786;BME280;47692;53.714;11.372;2023-11-19T04:18:43;100179.69;;;3.49;100.00
61786;BME280;47692;53.714;11.372;2023-11-19T04:21:08;100175.41;;;3.51;100.00
61786;BME280;47692;53.714;11.372;2023-11-19T04:23:34;100173.69;;;3.53;100.00
61786;BME280;47692;53.714;11.372;2023-11-19T04:26:02;100167.66;;;3.54;100.00
61786;BME280;47692;53.714;11.372;2023-11-19T04:28:27;100165.94;;;3.50;100.00
61786;BME280;47692;53.714;11.372;2023-11-19T04:30:53;100164.22;;;3.54;100.00
61786;BME280;47692;53.714;11.372;2023-11-19T04:33:18;100153.00;;;3.56;100.00
61786;BME280;47692;53.714;11.372;2023-11-19T04:35:43;100147.88;;;3.53;100.00
61786;BME280;47692;53.714;11.372;2023-11-19T04:38:08;100153.88;;;3.55;100.00
61786;BME280;47692;53.714;11.372;2023-11-19T04:40:34;100146.13;;;3.55;100.00
61786;BME280;47692;53.714;11.372;2023-11-19T04:42:59;100136.69;;;3.54;100.00
61786;BME280;47692;53.714;11.372;2023-11-19T04:45:24;100129.81;;;3.53;100.00
61786;BME280;47692;53.714;11.372;2023-11-19T04:47:50;100119.47;;;3.53;100.00
61786;BME280;47692;53.714;11.372;2023-11-19T04:50:15;100132.38;;;3.53;100.00
61786;BME280;47692;53.714;11.372;2023-11-19T04:52:41;100116.03;;;3.53;100.00
61786;BME280;47692;53.714;11.372;2023-11-19T04:55:07;100110.00;;;3.52;100.00
61786;BME280;47692;53.714;11.372;2023-11-19T04:57:32;100116.88;;;3.55;100.00
61786;BME280;47692;53.714;11.372;2023-11-19T04:59:58;100102.28;;;3.52;100.00
61786;BME280;47692;53.714;11.372;2023-11-19T05:02:23;100102.25;;;3.55;100.00
61786;BME280;47692;53.714;11.372;2023-11-19T05:04:49;100097.94;;;3.58;100.00
61786;BME280;47692;53.714;11.372;2023-11-19T05:07:14;100101.38;;;3.60;100.00
61786;BME280;47692;53.714;11.372;2023-11-19T05:09:39;100092.78;;;3.61;100.00
61786;BME280;47692;53.714;11.372;2023-11-19T05:12:05;100085.88;;;3.63;100.00
61786;BME280;47692;53.714;11.372;2023-11-19T05:14:33;100074.69;;;3.64;100.00
61786;BME280;47692;53.714;11.372;2023-11-19T05:16:59;100080.72;;;3.66;100.00
61786;BME280;47692;53.714;11.372;2023-11-19T05:19:24;100070.38;;;3.66;100.00
61786;BME280;47692;53.714;11.372;2023-11-19T05:21:49;100083.28;;;3.67;100.00
61786;BME280;47692;53.714;11.372;2023-11-19T05:24:17;100071.22;;;3.69;100.00
61786;BME280;47692;53.714;11.372;2023-11-19T05:26:42;100084.13;;;3.71;100.00
61786;BME280;47692;53.714;11.372;2023-11-19T05:29:08;100090.13;;;3.75;100.00
61786;BME280;47692;53.714;11.372;2023-11-19T05:31:33;100053.16;;;3.71;100.00
61786;BME280;47692;53.714;11.372;2023-11-19T05:33:58;100063.47;;;3.71;100.00
61786;BME280;47692;53.714;11.372;2023-11-19T05:36:23;100058.31;;;3.71;100.00
61786;BME280;47692;53.714;11.372;2023-11-19T05:38:49;100054.88;;;3.72;100.00
61786;BME280;47692;53.714;11.372;2023-11-19T05:41:14;100060.00;;;3.74;100.00
61786;BME280;47692;53.714;11.372;2023-11-19T05:43:40;100049.66;;;3.75;100.00
61786;BME280;47692;53.714;11.372;2023-11-19T05:46:07;100049.66;;;3.75;100.00
61786;BME280;47692;53.714;11.372;2023-11-19T05:48:34;100040.19;;;3.82;100.00
61786;BME280;47692;53.714;11.372;2023-11-19T05:50:59;100038.44;;;3.82;100.00
61786;BME280;47692;53.714;11.372;2023-11-19T05:53:25;100038.44;;;3.84;100.00
61786;BME280;47692;53.714;11.372;2023-11-19T05:55:50;100035.91;;;3.76;100.00
61786;BME280;47692;53.714;11.372;2023-11-19T05:58:25;100041.06;;;3.79;100.00
61786;BME280;47692;53.714;11.372;2023-11-19T06:00:52;100042.72;;;3.86;100.00
61786;BME280;47692;53.714;11.372;2023-11-19T06:03:17;100040.97;;;3.90;100.00
61786;BME280;47692;53.714;11.372;2023-11-19T06:05:45;100034.09;;;3.91;100.00
61786;BME280;47692;53.714;11.372;2023-11-19T06:08:11;100040.09;;;3.94;100.00
61786;BME280;47692;53.714;11.372;2023-11-19T06:10:39;100028.91;;;3.97;100.00
61786;BME280;47692;53.714;11.372;2023-11-19T06:13:04;100032.31;;;4.02;100.00
61786;BME280;47692;53.714;11.372;2023-11-19T06:15:30;100021.09;;;4.01;100.00
61786;BME280;47692;53.714;11.372;2023-11-19T06:17:56;100009.03;;;4.03;100.00
61786;BME280;47692;53.714;11.372;2023-11-19T06:20:24;100014.19;;;4.07;100.00
61786;BME280;47692;53.714;11.372;2023-11-19T06:22:50;100021.94;;;4.05;100.00
61786;BME280;47692;53.714;11.372;2023-11-19T06:25:15;100015.03;;;4.04;100.00
61786;BME280;47692;53.714;11.372;2023-11-19T06:27:42;100011.59;;;4.08;100.00
61786;BME280;47692;53.714;11.372;2023-11-19T06:30:08;100016.72;;;4.11;100.00
61786;BME280;47692;53.714;11.372;2023-11-19T06:32:33;100006.44;;;4.08;100.00
61786;BME280;47692;53.714;11.372;2023-11-19T06:34:59;100006.38;;;4.11;100.00
61786;BME280;47692;53.714;11.372;2023-11-19T06:37:24;100018.38;;;4.20;100.00
61786;BME280;47692;53.714;11.372;2023-11-19T06:39:49;100016.66;;;4.20;100.00
61786;BME280;47692;53.714;11.372;2023-11-19T06:42:15;100014.91;;;4.23;100.00
61786;BME280;47692;53.714;11.372;2023-11-19T06:44:40;100016.63;;;4.24;100.00
61786;BME280;47692;53.714;11.372;2023-11-19T06:47:05;100014.03;;;4.27;100.00
61786;BME280;47692;53.714;11.372;2023-11-19T06:49:31;100000.25;;;4.28;100.00
61786;BME280;47692;53.714;11.372;2023-11-19T06:51:57;100004.59;;;4.24;100.00
61786;BME280;47692;53.714;11.372;2023-11-19T06:54:22;100002.84;;;4.28;100.00
61786;BME280;47692;53.714;11.372;2023-11-19T06:56:48;100013.13;;;4.34;100.00
61786;BME280;47692;53.714;11.372;2023-11-19T06:59:14;100005.34;;;4.35;100.00
61786;BME280;47692;53.714;11.372;2023-11-19T07:01:39;100009.59;;;4.40;100.00
61786;BME280;47692;53.714;11.372;2023-11-19T07:04:10;100006.19;;;4.39;100.00
61786;BME280;47692;53.714;11.372;2023-11-19T07:06:36;100013.00;;;4.46;100.00
61786;BME280;47692;53.714;11.372;2023-11-19T07:09:02;100013.78;;;4.55;100.00
61786;BME280;47692;53.714;11.372;2023-11-19T07:11:43;100021.47;;;4.64;100.00
61786;BME280;47692;53.714;11.372;2023-11-19T07:14:10;100018.03;;;4.62;100.00
61786;BME280;47692;53.714;11.372;2023-11-19T07:16:35;100017.13;;;4.64;100.00
61786;BME280;47692;53.714;11.372;2023-11-19T07:19:04;100018.78;;;4.73;100.00
61786;BME280;47692;53.714;11.372;2023-11-19T07:21:31;100019.50;;;4.88;100.00
61786;BME280;47692;53.714;11.372;2023-11-19T07:23:58;100018.63;;;4.87;100.00
61786;BME280;47692;53.714;11.372;2023-11-19T07:26:23;100022.03;;;4.91;100.00
61786;BME280;47692;53.714;11.372;2023-11-19T07:28:49;100017.75;;;4.90;100.00
61786;BME280;47692;53.714;11.372;2023-11-19T07:31:15;100021.19;;;4.92;100.00
61786;BME280;47692;53.714;11.372;2023-11-19T07:33:40;100014.25;;;4.94;100.00
61786;BME280;47692;53.714;11.372;2023-11-19T07:36:09;100010.78;;;4.96;100.00
61786;BME280;47692;53.714;11.372;2023-11-19T07:38:35;100013.31;;;4.99;100.00
61786;BME280;47692;53.714;11.372;2023-11-19T07:41:00;100011.63;;;5.00;100.00
61786;BME280;47692;53.714;11.372;2023-11-19T07:43:26;100012.38;;;5.08;100.00
61786;BME280;47692;53.714;11.372;2023-11-19T07:45:51;100015.75;;;5.15;100.00
61786;BME280;47692;53.714;11.372;2023-11-19T07:48:16;100013.09;;;5.20;100.00
61786;BME280;47692;53.714;11.372;2023-11-19T07:50:43;100007.88;;;5.24;100.00
61786;BME280;47692;53.714;11.372;2023-11-19T07:53:08;100019.91;;;5.27;100.00
61786;BME280;47692;53.714;11.372;2023-11-19T07:55:34;100016.34;;;5.37;100.00
61786;BME280;47692;53.714;11.372;2023-11-19T07:57:59;100013.75;;;5.37;100.00
61786;BME280;47692;53.714;11.372;2023-11-19T08:00:24;100015.28;;;5.50;100.00
61786;BME280;47692;53.714;11.372;2023-11-19T08:02:50;100017.88;;;5.52;100.00
61786;BME280;47692;53.714;11.372;2023-11-19T08:05:15;100015.13;;;5.63;100.00
61786;BME280;47692;53.714;11.372;2023-11-19T08:07:40;100020.22;;;5.71;100.00
61786;BME280;47692;53.714;11.372;2023-11-19T08:10:07;100022.72;;;5.78;100.00
61786;BME280;47692;53.714;11.372;2023-11-19T08:12:35;100027.81;;;5.85;100.00
61786;BME280;47692;53.714;11.372;2023-11-19T08:15:02;100025.13;;;5.91;100.00
61786;BME280;47692;53.714;11.372;2023-11-19T08:17:27;100018.97;;;5.98;100.00
61786;BME280;47692;53.714;11.372;2023-11-19T08:19:52;100016.31;;;6.04;100.00
61786;BME280;47692;53.714;11.372;2023-11-19T08:22:17;100009.28;;;6.12;100.00
61786;BME280;47692;53.714;11.372;2023-11-19T08:24:43;100002.28;;;6.18;100.00
61786;BME280;47692;53.714;11.372;2023-11-19T08:27:08;100002.13;;;6.27;100.00
61786;BME280;47692;53.714;11.372;2023-11-19T08:29:34;100002.91;;;6.32;100.00
61786;BME280;47692;53.714;11.372;2023-11-19T08:32:00;100008.84;;;6.39;100.00
61786;BME280;47692;53.714;11.372;2023-11-19T08:34:27;100006.19;;;6.43;100.00
61786;BME280;47692;53.714;11.372;2023-11-19T08:36:52;100012.09;;;6.52;100.00
61786;BME280;47692;53.714;11.372;2023-11-19T08:39:21;100012.03;;;6.55;100.00
61786;BME280;47692;53.714;11.372;2023-11-19T08:41:47;100020.59;;;6.60;100.00
61786;BME280;47692;53.714;11.372;2023-11-19T08:44:12;100018.66;;;6.71;100.00
61786;BME280;47692;53.714;11.372;2023-11-19T08:46:38;100012.53;;;6.75;100.00
61786;BME280;47692;53.714;11.372;2023-11-19T08:49:05;100011.47;;;6.86;100.00
61786;BME280;47692;53.714;11.372;2023-11-19T08:51:30;100019.03;;;6.98;100.00
61786;BME280;47692;53.714;11.372;2023-11-19T08:53:56;100024.81;;;7.13;100.00
61786;BME280;47692;53.714;11.372;2023-11-19T08:56:22;100028.88;;;7.26;100.00
61786;BME280;47692;53.714;11.372;2023-11-19T08:58:47;100029.56;;;7.34;100.00
61786;BME280;47692;53.714;11.372;2023-11-19T09:01:13;100033.59;;;7.49;100.00
61786;BME280;47692;53.714;11.372;2023-11-19T09:03:38;100041.09;;;7.63;100.00
61786;BME280;47692;53.714;11.372;2023-11-19T09:06:04;100028.78;;;7.71;100.00
61786;BME280;47692;53.714;11.372;2023-11-19T09:08:29;100040.56;;;7.88;100.00
61786;BME280;47692;53.714;11.372;2023-11-19T09:10:54;100038.78;;;7.90;100.00
61786;BME280;47692;53.714;11.372;2023-11-19T09:13:20;100040.28;;;8.00;100.00
61786;BME280;47692;53.714;11.372;2023-11-19T09:15:45;100039.09;;;8.14;100.00
61786;BME280;47692;53.714;11.372;2023-11-19T09:18:10;100048.47;;;8.21;100.00
61786;BME280;47692;53.714;11.372;2023-11-19T09:20:36;100047.47;;;8.27;100.00
61786;BME280;47692;53.714;11.372;2023-11-19T09:23:04;100041.19;;;8.35;100.00
61786;BME280;47692;53.714;11.372;2023-11-19T09:25:30;100044.47;;;8.44;100.00
61786;BME280;47692;53.714;11.372;2023-11-19T09:27:56;100056.41;;;8.52;100.00
61786;BME280;47692;53.714;11.372;2023-11-19T09:30:21;100050.94;;;8.63;100.00
61786;BME280;47692;53.714;11.372;2023-11-19T09:32:46;100051.69;;;8.68;100.00
61786;BME280;47692;53.714;11.372;2023-11-19T09:35:11;100053.13;;;8.80;100.00
61786;BME280;47692;53.714;11.372;2023-11-19T09:37:39;100046.81;;;8.89;100.00
61786;BME280;47692;53.714;11.372;2023-11-19T09:40:05;100048.34;;;8.96;100.00
61786;BME280;47692;53.714;11.372;2023-11-19T09:42:43;100044.69;;;9.03;100.00
61786;BME280;47692;53.714;11.372;2023-11-19T09:45:13;100050.59;;;9.10;100.00
61786;BME280;47692;53.714;11.372;2023-11-19T09:47:43;100052.97;;;9.18;100.00
61786;BME280;47692;53.714;11.372;2023-11-19T09:50:10;100042.41;;;9.24;100.00
61786;BME280;47692;53.714;11.372;2023-11-19T09:52:39;100036.91;;;9.33;100.00
61786;BME280;47692;53.714;11.372;2023-11-19T09:55:04;100040.34;;;9.35;100.00
61786;BME280;47692;53.714;11.372;2023-11-19T09:57:30;100050.47;;;9.45;100.00
61786;BME280;47692;53.714;11.372;2023-11-19T09:59:58;100046.81;;;9.52;100.00
61786;BME280;47692;53.714;11.372;2023-11-19T10:02:23;100038.91;;;9.55;100.00
61786;BME280;47692;53.714;11.372;2023-11-19T10:04:49;100037.06;;;9.59;100.00
61786;BME280;47692;53.714;11.372;2023-11-19T10:07:16;100036.13;;;9.61;100.00
61786;BME280;47692;53.714;11.372;2023-11-19T10:09:41;100035.22;;;9.62;100.00
61786;BME280;47692;53.714;11.372;2023-11-19T10:12:06;100030.03;;;9.61;100.00
61786;BME280;47692;53.714;11.372;2023-11-19T10:14:33;100027.53;;;9.58;100.00
61786;BME280;47692;53.714;11.372;2023-11-19T10:17:01;100034.41;;;9.60;100.00
61786;BME280;47692;53.714;11.372;2023-11-19T10:19:29;100023.03;;;9.63;100.00
61786;BME280;47692;53.714;11.372;2023-11-19T10:21:54;100032.63;;;9.62;100.00
61786;BME280;47692;53.714;11.372;2023-11-19T10:24:31;100025.59;;;9.64;100.00
61786;BME280;47692;53.714;11.372;2023-11-19T10:26:59;100029.84;;;9.67;100.00
61786;BME280;47692;53.714;11.372;2023-11-19T10:29:24;100027.22;;;9.68;100.00
61786;BME280;47692;53.714;11.372;2023-11-19T10:31:56;100020.19;;;9.70;100.00
61786;BME280;47692;53.714;11.372;2023-11-19T10:34:26;100022.63;;;9.77;100.00
61786;BME280;47692;53.714;11.372;2023-11-19T10:36:52;100020.00;;;9.77;100.00
61786;BME280;47692;53.714;11.372;2023-11-19T10:39:18;100022.53;;;9.80;100.00
61786;BME280;47692;53.714;11.372;2023-11-19T10:41:43;100024.22;;;9.81;100.00
61786;BME280;47692;53.714;11.372;2023-11-19T10:44:09;100019.94;;;9.80;100.00
61786;BME280;47692;53.714;11.372;2023-11-19T10:46:39;100018.13;;;9.82;100.00
61786;BME280;47692;53.714;11.372;2023-11-19T10:49:06;100018.88;;;9.85;100.00
61786;BME280;47692;53.714;11.372;2023-11-19T10:51:32;100012.91;;;9.82;100.00
61786;BME280;47692;53.714;11.372;2023-11-19T10:54:03;100018.03;;;9.85;100.00
61786;BME280;47692;53.714;11.372;2023-11-19T10:56:32;100004.19;;;9.83;100.00
61786;BME280;47692;53.714;11.372;2023-11-19T10:59:02;100011.94;;;9.86;100.00
61786;BME280;47692;53.714;11.372;2023-11-19T11:01:46;100017.72;;;9.94;100.00
61786;BME280;47692;53.714;11.372;2023-11-19T11:04:23;100026.44;;;9.93;100.00
61786;BME280;47692;53.714;11.372;2023-11-19T11:06:48;100030.75;;;9.96;100.00
61786;BME280;47692;53.714;11.372;2023-11-19T11:09:15;100031.47;;;9.99;100.00
61786;BME280;47692;53.714;11.372;2023-11-19T11:11:46;100023.72;;;9.98;100.00
61786;BME280;47692;53.714;11.372;2023-11-19T11:14:13;100024.56;;;9.98;100.00
61786;BME280;47692;53.714;11.372;2023-11-19T11:16:46;100029.06;;;9.93;100.00
61786;BME280;47692;53.714;11.372;2023-11-19T11:19:12;100017.09;;;9.88;100.00
61786;BME280;47692;53.714;11.372;2023-11-19T11:21:41;100025.56;;;9.94;100.00
61786;BME280;47692;53.714;11.372;2023-11-19T11:38:36;100034.13;;;9.98;100.00
61786;BME280;47692;53.714;11.372;2023-11-19T11:41:20;100033.38;;;9.94;100.00
61786;BME280;47692;53.714;11.372;2023-11-19T11:43:48;100032.53;;;9.94;100.00
61786;BME280;47692;53.714;11.372;2023-11-19T11:49:07;100035.28;;;9.89;100.00
61786;BME280;47692;53.714;11.372;2023-11-19T11:57:01;100028.53;;;9.82;100.00
61786;BME280;47692;53.714;11.372;2023-11-19T11:59:36;100034.53;;;9.85;100.00
61786;BME280;47692;53.714;11.372;2023-11-19T12:02:03;100035.47;;;9.83;100.00
61786;BME280;47692;53.714;11.372;2023-11-19T12:04:28;100026.13;;;9.76;100.00
61786;BME280;47692;53.714;11.372;2023-11-19T12:09:29;100021.38;;;9.60;100.00
61786;BME280;47692;53.714;11.372;2023-11-19T12:12:21;100030.16;;;9.58;100.00
61786;BME280;47692;53.714;11.372;2023-11-19T12:20:03;100022.56;;;9.50;100.00
61786;BME280;47692;53.714;11.372;2023-11-19T12:22:30;100027.09;;;9.43;100.00
61786;BME280;47692;53.714;11.372;2023-11-19T12:24:56;100024.69;;;9.35;100.00
61786;BME280;47692;53.714;11.372;2023-11-19T12:27:21;100021.25;;;9.35;100.00
61786;BME280;47692;53.714;11.372;2023-11-19T12:29:48;100031.69;;;9.33;100.00
61786;BME280;47692;53.714;11.372;2023-11-19T12:32:14;100037.59;;;9.40;100.00
61786;BME280;47692;53.714;11.372;2023-11-19T12:34:39;100042.13;;;9.33;100.00
61786;BME280;47692;53.714;11.372;2023-11-19T12:37:05;100032.69;;;9.29;100.00
61786;BME280;47692;53.714;11.372;2023-11-19T12:39:31;100037.00;;;9.30;100.00
61786;BME280;47692;53.714;11.372;2023-11-19T12:41:56;100031.88;;;9.27;100.00
61786;BME280;47692;53.714;11.372;2023-11-19T12:44:24;100020.50;;;9.30;100.00
61786;BME280;47692;53.714;11.372;2023-11-19T12:47:19;100032.56;;;9.34;100.00
61786;BME280;47692;53.714;11.372;2023-11-19T12:49:55;100039.50;;;9.35;100.00
61786;BME280;47692;53.714;11.372;2023-11-19T12:52:21;100038.56;;;9.37;100.00
61786;BME280;47692;53.714;11.372;2023-11-19T12:54:48;100040.34;;;9.35;100.00
61786;BME280;47692;53.714;11.372;2023-11-19T12:57:13;100038.38;;;9.44;100.00
61786;BME280;47692;53.714;11.372;2023-11-19T12:59:39;100045.38;;;9.42;100.00
61786;BME280;47692;53.714;11.372;2023-11-19T13:02:04;100042.66;;;9.45;100.00
61786;BME280;47692;53.714;11.372;2023-11-19T13:04:31;100038.28;;;9.47;100.00
61786;BME280;47692;53.714;11.372;2023-11-19T13:06:58;100038.19;;;9.50;100.00
61786;BME280;47692;53.714;11.372;2023-11-19T13:09:24;100033.69;;;9.55;100.00